createdAt,value
2018-09-24T00:00:33.062Z,44.50
2018-09-24T00:01:37.306Z,44.50
2018-09-24T00:02:41.518Z,44.50
2018-09-24T00:03:45.749Z,44.50
2018-09-24T00:04:50.218Z,44.40
2018-09-24T00:05:54.467Z,44.50
2018-09-24T00:06:58.858Z,44.50
2018-09-24T00:08:03.094Z,44.50
2018-09-24T00:09:07.529Z,44.50
2018-09-24T00:10:11.906Z,44.50
2018-09-24T00:11:16.319Z,44.50
2018-09-24T00:12:20.615Z,44.50
2018-09-24T00:13:24.809Z,44.50
2018-09-24T00:14:29.194Z,44.50
2018-09-24T00:15:33.659Z,44.50
2018-09-24T00:16:37.953Z,44.50
2018-09-24T00:17:42.183Z,44.50
2018-09-24T00:18:46.391Z,44.50
2018-09-24T00:19:50.796Z,44.40
2018-09-24T00:20:55.233Z,44.50
2018-09-24T00:21:59.741Z,44.50
2018-09-24T00:23:04.023Z,44.40
2018-09-24T00:24:08.332Z,44.50
2018-09-24T00:25:12.801Z,44.50
2018-09-24T00:26:17.272Z,44.40
2018-09-24T00:27:21.587Z,44.40
2018-09-24T00:28:25.815Z,44.40
2018-09-24T00:29:30.103Z,44.40
2018-09-24T00:30:34.407Z,44.40
2018-09-24T00:31:38.881Z,44.40
2018-09-24T00:32:43.344Z,44.40
2018-09-24T00:33:47.797Z,44.40
2018-09-24T00:34:52.313Z,44.40
2018-09-24T00:35:56.587Z,44.40
2018-09-24T00:37:00.888Z,44.40
2018-09-24T00:38:05.167Z,44.40
2018-09-24T00:39:09.480Z,44.40
2018-09-24T00:40:13.796Z,44.40
2018-09-24T00:41:18.200Z,44.40
2018-09-24T00:42:22.572Z,44.40
2018-09-24T00:43:27.267Z,44.40
2018-09-24T00:44:31.553Z,44.40
2018-09-24T00:45:35.860Z,44.40
2018-09-24T00:46:40.185Z,44.30
2018-09-24T00:47:44.512Z,44.30
2018-09-24T00:48:49.027Z,44.30
2018-09-24T00:49:53.416Z,44.20
2018-09-24T00:50:57.990Z,44.20
2018-09-24T00:52:02.501Z,44.20
2018-09-24T00:53:06.777Z,44.20
2018-09-24T00:54:11.279Z,44.10
2018-09-24T00:55:15.607Z,44.10
2018-09-24T00:56:19.871Z,44.10
2018-09-24T00:57:24.217Z,44.10
2018-09-24T00:58:28.507Z,44.00
2018-09-24T00:59:32.983Z,44.10
2018-09-24T01:00:37.425Z,44.00
2018-09-24T01:01:41.849Z,44.00
2018-09-24T01:02:46.212Z,44.00
2018-09-24T01:03:50.551Z,44.00
2018-09-24T01:04:54.836Z,43.90
2018-09-24T01:05:59.066Z,43.90
2018-09-24T01:07:03.374Z,43.80
2018-09-24T01:08:07.882Z,43.80
2018-09-24T01:09:12.164Z,43.80
2018-09-24T01:10:16.601Z,43.70
2018-09-24T01:11:21.018Z,43.80
2018-09-24T01:12:25.307Z,43.80
2018-09-24T01:13:29.730Z,43.70
2018-09-24T01:14:34.057Z,43.70
2018-09-24T01:15:38.549Z,43.70
2018-09-24T01:16:42.849Z,43.70
2018-09-24T01:17:47.080Z,43.60
2018-09-24T01:18:51.562Z,43.60
2018-09-24T01:19:55.807Z,43.60
2018-09-24T01:21:00.255Z,44.20
2018-09-24T01:22:04.537Z,43.60
2018-09-24T01:23:08.804Z,43.50
2018-09-24T01:24:13.223Z,43.50
2018-09-24T01:25:17.761Z,43.50
2018-09-24T01:26:21.980Z,43.40
2018-09-24T01:27:26.167Z,43.40
2018-09-24T01:28:30.459Z,43.50
2018-09-24T01:29:35.239Z,44.10
2018-09-24T01:30:39.550Z,43.40
2018-09-24T01:31:43.872Z,43.30
2018-09-24T01:32:48.153Z,43.40
2018-09-24T01:33:52.709Z,43.40
2018-09-24T01:34:56.945Z,43.40
2018-09-24T01:36:01.215Z,43.30
2018-09-24T01:37:05.715Z,43.30
2018-09-24T01:38:10.047Z,43.30
2018-09-24T01:39:14.554Z,43.30
2018-09-24T01:40:18.776Z,43.30
2018-09-24T01:41:22.987Z,43.30
2018-09-24T01:42:27.375Z,43.30
2018-09-24T01:43:31.815Z,43.20
2018-09-24T01:44:36.113Z,43.20
2018-09-24T01:45:40.327Z,43.20
2018-09-24T01:46:44.774Z,43.20
2018-09-24T01:47:49.027Z,43.20
2018-09-24T01:48:53.292Z,43.20
2018-09-24T01:49:57.767Z,43.20
2018-09-24T01:51:02.004Z,43.20
2018-09-24T01:52:06.501Z,43.20
2018-09-24T01:53:11.047Z,43.20
2018-09-24T01:54:15.595Z,43.20
2018-09-24T01:55:20.175Z,43.20
2018-09-24T01:56:24.390Z,43.20
2018-09-24T01:57:28.889Z,43.20
2018-09-24T01:58:33.365Z,43.20
2018-09-24T01:59:37.877Z,43.20
2018-09-24T02:00:42.119Z,43.20
2018-09-24T02:01:46.618Z,43.20
2018-09-24T02:02:51.096Z,43.20
2018-09-24T02:03:55.589Z,43.20
2018-09-24T02:05:00.088Z,43.10
2018-09-24T02:06:04.565Z,43.20
2018-09-24T02:07:08.869Z,43.20
2018-09-24T02:08:13.411Z,43.20
2018-09-24T02:09:17.817Z,43.10
2018-09-24T02:10:22.233Z,43.10
2018-09-24T02:11:26.641Z,43.20
2018-09-24T02:12:31.107Z,43.10
2018-09-24T02:13:35.560Z,43.10
2018-09-24T02:14:39.823Z,43.10
2018-09-24T02:15:44.290Z,43.20
2018-09-24T02:16:48.734Z,43.10
2018-09-24T02:17:53.190Z,43.20
2018-09-24T02:18:57.435Z,43.20
2018-09-24T02:20:01.656Z,43.10
2018-09-24T02:21:05.904Z,43.20
2018-09-24T02:22:10.331Z,43.10
2018-09-24T02:23:14.610Z,43.10
2018-09-24T02:24:18.873Z,43.10
2018-09-24T02:25:23.103Z,43.10
2018-09-24T02:26:27.562Z,43.10
2018-09-24T02:27:31.791Z,43.10
2018-09-24T02:28:36.100Z,43.10
2018-09-24T02:29:40.420Z,43.10
2018-09-24T02:30:44.725Z,43.10
2018-09-24T02:31:48.984Z,43.10
2018-09-24T02:32:53.276Z,43.10
2018-09-24T02:33:57.580Z,43.10
2018-09-24T02:35:01.996Z,43.70
2018-09-24T02:36:06.553Z,43.10
2018-09-24T02:37:10.964Z,43.10
2018-09-24T02:38:15.328Z,43.80
2018-09-24T02:39:19.836Z,43.00
2018-09-24T02:40:24.410Z,43.10
2018-09-24T02:41:28.889Z,43.00
2018-09-24T02:42:33.370Z,43.00
2018-09-24T02:43:37.838Z,43.00
2018-09-24T02:44:42.190Z,43.00
2018-09-24T02:45:46.584Z,43.00
2018-09-24T02:46:51.121Z,43.70
2018-09-24T02:47:55.584Z,43.10
2018-09-24T02:49:00.048Z,43.00
2018-09-24T02:50:04.434Z,43.00
2018-09-24T02:51:08.746Z,43.00
2018-09-24T02:52:13.061Z,43.00
2018-09-24T02:53:17.338Z,43.00
2018-09-24T02:54:21.782Z,42.90
2018-09-24T02:55:26.037Z,43.00
2018-09-24T02:56:30.322Z,43.00
2018-09-24T02:57:35.111Z,43.00
2018-09-24T02:58:39.511Z,43.00
2018-09-24T02:59:43.967Z,43.00
2018-09-24T03:00:48.259Z,42.90
2018-09-24T03:01:52.530Z,42.90
2018-09-24T03:02:57.005Z,42.90
2018-09-24T03:04:01.409Z,42.90
2018-09-24T03:05:05.902Z,42.90
2018-09-24T03:06:10.437Z,42.90
2018-09-24T03:07:14.889Z,43.00
2018-09-24T03:08:19.380Z,43.00
2018-09-24T03:09:23.910Z,43.00
2018-09-24T03:10:28.189Z,43.00
2018-09-24T03:11:32.430Z,43.00
2018-09-24T03:12:36.935Z,43.00
2018-09-24T03:13:41.188Z,42.90
2018-09-24T03:14:45.605Z,43.00
2018-09-24T03:15:50.003Z,43.00
2018-09-24T03:16:54.598Z,43.00
2018-09-24T03:17:58.902Z,43.00
2018-09-24T03:19:03.487Z,43.00
2018-09-24T03:20:07.788Z,43.00
2018-09-24T03:21:12.255Z,43.00
2018-09-24T03:22:16.727Z,43.00
2018-09-24T03:23:21.018Z,43.00
2018-09-24T03:24:25.512Z,43.00
2018-09-24T03:25:29.860Z,43.00
2018-09-24T03:26:34.099Z,43.00
2018-09-24T03:27:38.611Z,43.00
2018-09-24T03:28:42.892Z,43.00
2018-09-24T03:29:47.413Z,43.00
2018-09-24T03:30:51.963Z,43.00
2018-09-24T03:31:56.348Z,43.00
2018-09-24T03:33:00.628Z,43.00
2018-09-24T03:34:05.130Z,43.00
2018-09-24T03:35:09.396Z,43.00
2018-09-24T03:36:13.875Z,43.00
2018-09-24T03:37:18.356Z,43.00
2018-09-24T03:38:22.804Z,42.90
2018-09-24T03:39:27.272Z,42.90
2018-09-24T03:40:31.572Z,42.90
2018-09-24T03:41:36.000Z,42.90
2018-09-24T03:42:40.379Z,43.00
2018-09-24T03:43:44.788Z,42.90
2018-09-24T03:44:49.080Z,42.90
2018-09-24T03:45:53.429Z,42.90
2018-09-24T03:46:57.718Z,42.90
2018-09-24T03:48:02.179Z,42.80
2018-09-24T03:49:06.426Z,42.80
2018-09-24T03:50:10.698Z,42.80
2018-09-24T03:51:14.962Z,42.80
2018-09-24T03:52:19.241Z,42.80
2018-09-24T03:53:23.667Z,42.80
2018-09-24T03:54:27.971Z,42.80
2018-09-24T03:55:32.207Z,42.80
2018-09-24T03:56:36.579Z,43.10
2018-09-24T03:57:41.100Z,42.80
2018-09-24T03:58:45.641Z,42.80
2018-09-24T03:59:50.103Z,42.80
2018-09-24T04:00:55.133Z,42.80
2018-09-24T04:02:00.236Z,42.70
2018-09-24T04:03:04.764Z,42.70
2018-09-24T04:04:09.013Z,42.70
2018-09-24T04:05:13.244Z,42.70
2018-09-24T04:06:17.689Z,42.70
2018-09-24T04:07:22.033Z,42.70
2018-09-24T04:08:26.342Z,42.70
2018-09-24T04:09:30.773Z,42.70
2018-09-24T04:10:35.073Z,42.70
2018-09-24T04:11:39.560Z,42.70
2018-09-24T04:12:43.907Z,42.70
2018-09-24T04:13:48.369Z,42.70
2018-09-24T04:14:52.659Z,42.60
2018-09-24T04:15:56.906Z,42.70
2018-09-24T04:17:01.490Z,42.70
2018-09-24T04:18:05.937Z,42.70
2018-09-24T04:19:10.443Z,42.70
2018-09-24T04:20:14.757Z,42.70
2018-09-24T04:21:19.228Z,42.60
2018-09-24T04:22:23.719Z,42.60
2018-09-24T04:23:28.081Z,42.70
2018-09-24T04:24:32.515Z,42.70
2018-09-24T04:25:36.780Z,42.60
2018-09-24T04:26:42.111Z,42.60
2018-09-24T04:27:46.695Z,42.60
2018-09-24T04:28:51.216Z,42.60
2018-09-24T04:29:55.706Z,42.60
2018-09-24T04:31:00.164Z,42.50
2018-09-24T04:32:04.502Z,42.50
2018-09-24T04:33:08.955Z,42.50
2018-09-24T04:34:14.352Z,42.50
2018-09-24T04:35:18.619Z,42.50
2018-09-24T04:36:22.945Z,42.50
2018-09-24T04:37:27.207Z,42.50
2018-09-24T04:38:31.636Z,42.50
2018-09-24T04:39:35.977Z,42.50
2018-09-24T04:40:40.152Z,42.50
2018-09-24T04:41:44.386Z,42.50
2018-09-24T04:42:48.820Z,42.40
2018-09-24T04:43:53.148Z,42.40
2018-09-24T04:44:57.590Z,42.40
2018-09-24T04:46:02.079Z,43.10
2018-09-24T04:47:06.344Z,42.40
2018-09-24T04:48:10.895Z,42.50
2018-09-24T04:49:15.449Z,42.40
2018-09-24T04:50:19.827Z,42.30
2018-09-24T04:51:24.130Z,42.50
2018-09-24T04:52:28.557Z,42.40
2018-09-24T04:53:32.997Z,42.50
2018-09-24T04:54:37.650Z,42.50
2018-09-24T04:55:42.143Z,42.50
2018-09-24T04:56:46.660Z,42.40
2018-09-24T04:57:50.980Z,42.40
2018-09-24T04:58:55.351Z,42.40
2018-09-24T04:59:59.918Z,43.10
2018-09-24T05:01:04.660Z,42.40
2018-09-24T05:02:08.907Z,42.40
2018-09-24T05:03:13.348Z,43.10
2018-09-24T05:04:17.820Z,42.40
2018-09-24T05:05:22.191Z,42.40
2018-09-24T05:06:26.435Z,42.30
2018-09-24T05:07:30.850Z,42.30
2018-09-24T05:08:35.246Z,42.30
2018-09-24T05:09:39.656Z,42.30
2018-09-24T05:10:43.888Z,42.30
2018-09-24T05:11:48.339Z,42.30
2018-09-24T05:12:52.782Z,42.30
2018-09-24T05:13:57.145Z,42.30
2018-09-24T05:15:01.621Z,42.20
2018-09-24T05:16:06.081Z,42.20
2018-09-24T05:17:10.527Z,42.30
2018-09-24T05:18:14.967Z,42.30
2018-09-24T05:19:19.390Z,42.20
2018-09-24T05:20:23.785Z,42.20
2018-09-24T05:21:28.252Z,42.20
2018-09-24T05:22:32.696Z,42.20
2018-09-24T05:23:37.174Z,42.20
2018-09-24T05:24:41.480Z,42.20
2018-09-24T05:25:45.700Z,42.20
2018-09-24T05:26:50.025Z,42.10
2018-09-24T05:27:54.347Z,42.10
2018-09-24T05:28:58.579Z,42.10
2018-09-24T05:30:02.977Z,42.00
2018-09-24T05:31:07.251Z,42.00
2018-09-24T05:32:11.543Z,42.10
2018-09-24T05:33:15.987Z,42.10
2018-09-24T05:34:20.467Z,42.10
2018-09-24T05:35:24.712Z,42.10
2018-09-24T05:36:28.995Z,42.20
2018-09-24T05:37:33.463Z,42.10
2018-09-24T05:38:38.007Z,42.10
2018-09-24T05:39:42.637Z,42.10
2018-09-24T05:40:47.526Z,42.10
2018-09-24T05:41:52.004Z,42.10
2018-09-24T05:42:56.259Z,42.10
2018-09-24T05:44:00.700Z,42.00
2018-09-24T05:45:05.228Z,42.10
2018-09-24T05:46:09.728Z,42.10
2018-09-24T05:47:13.991Z,42.10
2018-09-24T05:48:18.352Z,42.10
2018-09-24T05:49:44.504Z,42.10
2018-09-24T05:50:49.401Z,42.10
2018-09-24T05:51:53.625Z,42.10
2018-09-24T05:52:58.115Z,42.20
2018-09-24T05:54:02.640Z,42.20
2018-09-24T05:55:06.919Z,42.30
2018-09-24T05:56:11.341Z,42.50
2018-09-24T05:57:15.649Z,42.70
2018-09-24T05:58:20.111Z,42.80
2018-09-24T05:59:24.561Z,43.00
2018-09-24T06:00:28.995Z,43.20
2018-09-24T06:01:33.236Z,43.30
2018-09-24T06:02:37.625Z,43.40
2018-09-24T06:03:45.885Z,43.50
2018-09-24T06:04:50.434Z,43.60
2018-09-24T06:05:54.902Z,43.70
2018-09-24T06:06:59.226Z,43.80
2018-09-24T06:08:03.519Z,43.90
2018-09-24T06:09:07.823Z,43.90
2018-09-24T06:10:12.281Z,44.00
2018-09-24T06:11:16.707Z,44.30
2018-09-24T06:12:21.196Z,45.20
2018-09-24T06:13:25.439Z,44.70
2018-09-24T06:14:29.700Z,44.90
2018-09-24T06:15:34.117Z,45.10
2018-09-24T06:16:38.475Z,45.40
2018-09-24T06:17:42.942Z,45.40
2018-09-24T06:18:47.443Z,45.50
2018-09-24T06:19:51.762Z,45.60
2018-09-24T06:20:56.001Z,45.80
2018-09-24T06:22:00.235Z,45.90
2018-09-24T06:23:04.556Z,46.00
2018-09-24T06:24:08.934Z,46.10
2018-09-24T06:25:13.409Z,46.20
2018-09-24T06:26:17.790Z,46.20
2018-09-24T06:27:22.157Z,46.40
2018-09-24T06:28:26.594Z,46.40
2018-09-24T06:29:30.903Z,46.40
2018-09-24T06:30:35.386Z,46.30
2018-09-24T06:31:39.639Z,46.30
2018-09-24T06:32:43.941Z,46.00
2018-09-24T06:33:48.216Z,45.70
2018-09-24T06:34:52.482Z,45.30
2018-09-24T06:35:56.924Z,44.90
2018-09-24T06:37:01.433Z,44.70
2018-09-24T06:38:05.683Z,44.40
2018-09-24T06:39:10.110Z,44.20
2018-09-24T06:40:14.637Z,44.20
2018-09-24T06:41:19.172Z,44.20
2018-09-24T06:42:23.496Z,44.20
2018-09-24T06:43:27.806Z,43.90
2018-09-24T06:44:32.093Z,43.90
2018-09-24T06:45:36.591Z,43.90
2018-09-24T06:46:41.025Z,44.00
2018-09-24T06:47:45.311Z,43.90
2018-09-24T06:48:49.589Z,43.90
2018-09-24T06:49:54.111Z,43.90
2018-09-24T06:50:58.356Z,43.80
2018-09-24T06:52:02.725Z,43.80
2018-09-24T06:53:07.261Z,43.70
2018-09-24T06:54:11.626Z,44.30
2018-09-24T06:55:16.078Z,43.70
2018-09-24T06:56:20.314Z,43.60
2018-09-24T06:57:24.537Z,43.70
2018-09-24T06:58:28.916Z,43.60
2018-09-24T06:59:33.391Z,43.60
2018-09-24T07:00:37.798Z,43.40
2018-09-24T07:01:42.306Z,43.30
2018-09-24T07:02:46.786Z,43.20
2018-09-24T07:03:52.255Z,43.40
2018-09-24T07:04:56.683Z,43.20
2018-09-24T07:06:01.149Z,43.20
2018-09-24T07:07:05.583Z,43.30
2018-09-24T07:08:10.032Z,43.40
2018-09-24T07:09:14.291Z,43.50
2018-09-24T07:10:18.771Z,43.50
2018-09-24T07:11:23.295Z,43.50
2018-09-24T07:12:27.680Z,43.70
2018-09-24T07:13:32.002Z,43.60
2018-09-24T07:14:36.277Z,43.50
2018-09-24T07:15:40.547Z,43.30
2018-09-24T07:16:45.040Z,43.40
2018-09-24T07:17:49.389Z,43.40
2018-09-24T07:18:53.997Z,43.40
2018-09-24T07:19:58.369Z,43.30
2018-09-24T07:21:02.879Z,43.20
2018-09-24T07:22:07.233Z,43.20
2018-09-24T07:23:11.544Z,43.20
2018-09-24T07:24:15.827Z,43.10
2018-09-24T07:25:20.413Z,43.20
2018-09-24T07:26:24.868Z,43.20
2018-09-24T07:27:29.403Z,43.20
2018-09-24T07:28:33.876Z,43.10
2018-09-24T07:29:38.166Z,43.00
2018-09-24T07:30:42.505Z,43.50
2018-09-24T07:31:46.913Z,42.80
2018-09-24T07:32:51.292Z,42.90
2018-09-24T07:33:55.653Z,42.90
2018-09-24T07:34:59.902Z,43.00
2018-09-24T07:36:04.305Z,42.80
2018-09-24T07:37:08.623Z,42.80
2018-09-24T07:38:13.076Z,42.80
2018-09-24T07:39:17.558Z,42.80
2018-09-24T07:40:21.840Z,42.80
2018-09-24T07:41:26.117Z,42.80
2018-09-24T07:42:30.384Z,42.70
2018-09-24T07:43:34.876Z,42.70
2018-09-24T07:44:39.146Z,42.70
2018-09-24T07:45:43.523Z,42.70
2018-09-24T07:46:47.929Z,42.70
2018-09-24T07:47:52.222Z,42.70
2018-09-24T07:48:56.723Z,42.70
2018-09-24T07:50:01.033Z,42.70
2018-09-24T07:51:05.294Z,42.70
2018-09-24T07:52:09.823Z,42.70
2018-09-24T07:53:14.232Z,42.70
2018-09-24T07:54:18.718Z,42.70
2018-09-24T07:55:24.703Z,42.60
2018-09-24T07:56:29.509Z,42.70
2018-09-24T07:57:33.800Z,42.50
2018-09-24T07:58:38.277Z,42.50
2018-09-24T07:59:42.719Z,42.50
2018-09-24T08:00:47.088Z,42.50
2018-09-24T08:01:51.282Z,42.50
2018-09-24T08:02:55.568Z,42.50
2018-09-24T08:04:00.016Z,42.50
2018-09-24T08:05:04.351Z,42.60
2018-09-24T08:06:08.867Z,42.60
2018-09-24T08:07:13.399Z,42.80
2018-09-24T08:08:17.883Z,42.50
2018-09-24T08:09:22.200Z,42.40
2018-09-24T08:10:26.660Z,42.40
2018-09-24T08:11:31.148Z,42.40
2018-09-24T08:12:35.524Z,42.50
2018-09-24T08:13:39.947Z,42.50
2018-09-24T08:14:44.243Z,42.40
2018-09-24T08:15:48.706Z,42.40
2018-09-24T08:16:53.197Z,42.30
2018-09-24T08:17:57.529Z,42.30
2018-09-24T08:19:02.041Z,42.30
2018-09-24T08:20:06.366Z,42.30
2018-09-24T08:21:11.016Z,42.40
2018-09-24T08:22:15.303Z,42.80
2018-09-24T08:23:19.786Z,42.10
2018-09-24T08:24:24.066Z,42.00
2018-09-24T08:25:28.353Z,42.10
2018-09-24T08:26:32.596Z,42.30
2018-09-24T08:27:37.008Z,42.10
2018-09-24T08:28:41.499Z,42.50
2018-09-24T08:29:45.899Z,42.30
2018-09-24T08:30:50.366Z,42.90
2018-09-24T08:31:54.617Z,42.20
2018-09-24T08:32:59.082Z,42.30
2018-09-24T08:34:03.348Z,42.30
2018-09-24T08:35:07.759Z,42.20
2018-09-24T08:36:12.229Z,42.00
2018-09-24T08:37:16.441Z,41.90
2018-09-24T08:38:20.926Z,41.90
2018-09-24T08:39:25.484Z,41.90
2018-09-24T08:40:29.806Z,41.90
2018-09-24T08:41:34.074Z,41.90
2018-09-24T08:42:38.344Z,42.00
2018-09-24T08:43:42.846Z,41.90
2018-09-24T08:44:47.166Z,41.90
2018-09-24T08:45:51.697Z,42.00
2018-09-24T08:46:56.141Z,42.00
2018-09-24T08:48:00.505Z,41.90
2018-09-24T08:49:04.816Z,41.90
2018-09-24T08:50:09.143Z,41.90
2018-09-24T08:51:13.425Z,41.80
2018-09-24T08:52:17.982Z,41.90
2018-09-24T08:53:22.654Z,41.80
2018-09-24T08:54:27.114Z,41.80
2018-09-24T08:55:31.403Z,41.70
2018-09-24T08:56:35.955Z,41.60
2018-09-24T08:57:44.608Z,41.60
2018-09-24T08:58:48.889Z,41.60
2018-09-24T08:59:53.334Z,41.70
2018-09-24T09:00:57.822Z,41.70
2018-09-24T09:02:02.245Z,41.90
2018-09-24T09:03:06.478Z,41.90
2018-09-24T09:04:10.710Z,42.60
2018-09-24T09:05:15.149Z,41.70
2018-09-24T09:06:19.626Z,41.40
2018-09-24T09:07:23.908Z,41.20
2018-09-24T09:08:28.405Z,40.90
2018-09-24T09:09:32.793Z,40.40
2018-09-24T09:10:37.108Z,40.10
2018-09-24T09:11:41.411Z,40.10
2018-09-24T09:12:45.849Z,40.10
2018-09-24T09:13:50.353Z,40.10
2018-09-24T09:14:54.887Z,39.90
2018-09-24T09:15:59.324Z,39.80
2018-09-24T09:17:03.867Z,39.80
2018-09-24T09:18:08.186Z,39.60
2018-09-24T09:19:12.420Z,39.40
2018-09-24T09:20:16.769Z,39.50
2018-09-24T09:21:21.204Z,39.50
2018-09-24T09:22:25.463Z,39.40
2018-09-24T09:23:29.966Z,39.40
2018-09-24T09:24:34.198Z,39.40
2018-09-24T09:25:38.718Z,39.50
2018-09-24T09:26:43.018Z,39.60
2018-09-24T09:27:47.481Z,39.50
2018-09-24T09:28:51.710Z,39.40
2018-09-24T09:29:56.199Z,39.10
2018-09-24T09:31:00.813Z,39.00
2018-09-24T09:32:05.148Z,38.90
2018-09-24T09:33:09.843Z,38.90
2018-09-24T09:34:14.227Z,39.00
2018-09-24T09:35:18.784Z,39.20
2018-09-24T09:36:23.146Z,38.90
2018-09-24T09:37:27.654Z,39.80
2018-09-24T09:38:32.139Z,39.10
2018-09-24T09:39:36.636Z,38.90
2018-09-24T09:40:41.128Z,38.70
2018-09-24T09:41:45.451Z,38.90
2018-09-24T09:42:50.623Z,39.10
2018-09-24T09:43:55.087Z,39.00
2018-09-24T09:44:59.609Z,39.20
2018-09-24T09:46:03.883Z,39.60
2018-09-24T09:47:08.280Z,39.80
2018-09-24T09:48:12.791Z,40.70
2018-09-24T09:49:17.229Z,40.00
2018-09-24T09:50:21.455Z,40.60
2018-09-24T09:51:25.862Z,40.20
2018-09-24T09:52:30.356Z,40.20
2018-09-24T09:53:34.856Z,40.90
2018-09-24T09:54:39.388Z,40.30
2018-09-24T09:55:44.768Z,40.20
2018-09-24T09:56:54.600Z,40.10
2018-09-24T09:57:59.096Z,40.20
2018-09-24T09:59:03.513Z,40.20
2018-09-24T10:00:07.889Z,40.30
2018-09-24T10:01:14.458Z,40.30
2018-09-24T10:02:18.779Z,40.30
2018-09-24T10:03:24.044Z,40.40
2018-09-24T10:04:28.283Z,40.30
2018-09-24T10:05:36.384Z,40.30
2018-09-24T10:06:43.845Z,40.30
2018-09-24T10:09:38.513Z,40.00
2018-09-24T10:10:43.017Z,40.00
2018-09-24T10:11:47.547Z,39.90
2018-09-24T10:12:51.896Z,40.00
2018-09-24T10:13:56.232Z,40.00
2018-09-24T10:15:00.508Z,40.00
2018-09-24T10:16:04.915Z,40.00
2018-09-24T10:17:09.297Z,40.00
2018-09-24T10:18:13.624Z,39.90
2018-09-24T10:19:17.956Z,39.90
2018-09-24T10:20:22.226Z,39.90
2018-09-24T10:21:26.615Z,39.80
2018-09-24T10:22:31.111Z,39.80
2018-09-24T10:23:35.392Z,39.70
2018-09-24T10:24:39.920Z,39.80
2018-09-24T10:25:44.232Z,39.70
2018-09-24T10:26:48.570Z,39.80
2018-09-24T10:27:52.946Z,39.60
2018-09-24T10:28:57.444Z,39.40
2018-09-24T10:30:01.783Z,39.50
2018-09-24T10:31:06.223Z,39.50
2018-09-24T10:32:10.556Z,39.50
2018-09-24T10:33:14.937Z,39.60
2018-09-24T10:34:19.368Z,39.80
2018-09-24T10:35:23.658Z,39.80
2018-09-24T10:36:27.963Z,39.70
2018-09-24T10:37:32.317Z,39.70
2018-09-24T10:38:36.623Z,39.70
2018-09-24T10:39:40.959Z,39.70
2018-09-24T10:40:45.213Z,39.70
2018-09-24T10:41:49.589Z,39.70
2018-09-24T10:42:54.095Z,39.70
2018-09-24T10:43:58.624Z,39.60
2018-09-24T10:45:02.993Z,39.50
2018-09-24T10:46:07.506Z,39.40
2018-09-24T10:47:11.812Z,39.60
2018-09-24T10:48:16.054Z,39.60
2018-09-24T10:49:20.587Z,39.70
2018-09-24T10:50:25.107Z,39.70
2018-09-24T10:51:29.421Z,39.60
2018-09-24T10:52:33.907Z,39.60
2018-09-24T10:53:38.234Z,39.60
2018-09-24T10:54:42.599Z,39.60
2018-09-24T10:55:46.991Z,39.70
2018-09-24T10:56:51.443Z,39.70
2018-09-24T10:57:55.967Z,39.60
2018-09-24T10:59:00.271Z,39.60
2018-09-24T11:00:04.772Z,39.50
2018-09-24T11:01:09.232Z,39.50
2018-09-24T11:02:13.659Z,39.40
2018-09-24T11:03:18.176Z,39.50
2018-09-24T11:04:22.475Z,39.40
2018-09-24T11:05:26.960Z,39.30
2018-09-24T11:06:31.417Z,39.30
2018-09-24T11:07:35.754Z,39.40
2018-09-24T11:08:40.063Z,39.40
2018-09-24T11:09:44.440Z,39.40
2018-09-24T11:10:48.820Z,39.40
2018-09-24T11:11:53.181Z,39.40
2018-09-24T11:12:57.420Z,39.40
2018-09-24T11:14:01.640Z,39.50
2018-09-24T11:15:06.117Z,39.50
2018-09-24T11:16:10.751Z,39.60
2018-09-24T11:17:15.166Z,40.20
2018-09-24T11:18:19.698Z,40.20
2018-09-24T11:19:23.991Z,40.10
2018-09-24T11:20:28.759Z,40.10
2018-09-24T11:21:33.160Z,40.20
2018-09-24T11:22:37.857Z,40.20
2018-09-24T11:23:42.281Z,40.40
2018-09-24T11:24:46.520Z,40.40
2018-09-24T11:25:50.859Z,40.50
2018-09-24T11:26:55.244Z,40.60
2018-09-24T11:28:00.032Z,40.70
2018-09-24T11:29:04.303Z,40.70
2018-09-24T11:30:09.015Z,40.90
2018-09-24T11:31:13.400Z,41.00
2018-09-24T11:32:18.055Z,41.10
2018-09-24T11:33:22.289Z,41.10
2018-09-24T11:34:26.726Z,41.10
2018-09-24T11:35:31.043Z,41.10
2018-09-24T11:36:35.339Z,41.10
2018-09-24T11:37:39.732Z,41.10
2018-09-24T11:38:44.107Z,41.30
2018-09-24T11:39:48.491Z,41.30
2018-09-24T11:40:52.998Z,41.30
2018-09-24T11:41:57.755Z,41.30
2018-09-24T11:43:02.053Z,41.40
2018-09-24T11:44:06.722Z,41.30
2018-09-24T11:45:11.017Z,41.30
2018-09-24T11:46:15.235Z,41.30
2018-09-24T11:47:19.574Z,41.30
2018-09-24T11:48:23.895Z,41.30
2018-09-24T11:49:28.646Z,41.30
2018-09-24T11:50:33.044Z,41.30
2018-09-24T11:51:37.877Z,41.30
2018-09-24T11:52:42.135Z,41.40
2018-09-24T11:53:46.715Z,41.40
2018-09-24T11:54:51.162Z,41.50
2018-09-24T11:55:55.553Z,41.50
2018-09-24T11:57:00.099Z,41.50
2018-09-24T11:58:04.512Z,41.50
2018-09-24T11:59:09.271Z,41.50
2018-09-24T12:00:13.489Z,41.60
2018-09-24T12:01:18.414Z,41.60
2018-09-24T12:02:22.907Z,41.60
2018-09-24T12:03:27.209Z,41.70
2018-09-24T12:04:31.524Z,41.70
2018-09-24T12:05:39.358Z,41.80
2018-09-24T12:06:43.775Z,41.50
2018-09-24T12:07:48.525Z,41.60
2018-09-24T12:08:53.269Z,41.70
2018-09-24T12:09:58.123Z,41.80
2018-09-24T12:11:02.592Z,41.90
2018-09-24T12:12:07.443Z,41.80
2018-09-24T12:13:11.801Z,41.80
2018-09-24T12:14:16.284Z,41.70
2018-09-24T12:15:20.723Z,41.70
2018-09-24T12:16:25.000Z,41.80
2018-09-24T12:17:29.709Z,41.80
2018-09-24T12:18:33.971Z,41.80
2018-09-24T12:19:38.772Z,42.00
2018-09-24T12:20:43.195Z,42.00
2018-09-24T12:21:48.065Z,42.10
2018-09-24T12:22:52.507Z,42.30
2018-09-24T12:23:57.335Z,42.40
2018-09-24T12:25:01.617Z,42.40
2018-09-24T12:26:05.850Z,42.40
2018-09-24T12:27:10.191Z,42.50
2018-09-24T12:28:14.579Z,42.60
2018-09-24T12:29:18.913Z,42.70
2018-09-24T12:30:23.155Z,42.80
2018-09-24T12:31:27.903Z,42.80
2018-09-24T12:32:32.177Z,42.80
2018-09-24T12:33:36.427Z,42.80
2018-09-24T12:34:40.968Z,42.80
2018-09-24T12:35:45.234Z,42.80
2018-09-24T12:36:49.985Z,42.70
2018-09-24T12:37:54.393Z,42.50
2018-09-24T12:38:59.020Z,42.40
2018-09-24T12:40:03.341Z,42.10
2018-09-24T12:41:07.658Z,42.00
2018-09-24T12:42:12.019Z,41.90
2018-09-24T12:43:16.326Z,41.70
2018-09-24T12:44:20.573Z,41.60
2018-09-24T12:45:25.024Z,41.60
2018-09-24T12:46:29.312Z,41.60
2018-09-24T12:47:33.639Z,41.60
2018-09-24T12:48:38.166Z,41.60
2018-09-24T12:49:42.436Z,41.60
2018-09-24T12:50:46.742Z,41.50
2018-09-24T12:51:51.112Z,41.50
2018-09-24T12:52:55.336Z,41.30
2018-09-24T12:53:59.616Z,41.30
2018-09-24T12:55:04.071Z,41.30
2018-09-24T12:56:08.452Z,41.30
2018-09-24T12:57:12.696Z,41.30
2018-09-24T12:58:17.105Z,41.30
2018-09-24T12:59:21.480Z,41.30
2018-09-24T13:00:25.801Z,41.30
2018-09-24T13:01:30.228Z,41.30
2018-09-24T13:02:34.677Z,41.30
2018-09-24T13:03:39.001Z,41.30
2018-09-24T13:04:43.305Z,41.30
2018-09-24T13:05:47.725Z,41.40
2018-09-24T13:06:52.153Z,41.60
2018-09-24T13:07:56.461Z,41.70
2018-09-24T13:09:00.803Z,41.70
2018-09-24T13:10:05.214Z,41.60
2018-09-24T13:11:09.651Z,41.60
2018-09-24T13:12:13.955Z,41.70
2018-09-24T13:13:18.371Z,41.60
2018-09-24T13:14:22.599Z,41.70
2018-09-24T13:15:27.212Z,41.80
2018-09-24T13:16:31.643Z,42.00
2018-09-24T13:17:35.938Z,42.00
2018-09-24T13:18:40.293Z,42.10
2018-09-24T13:19:44.743Z,42.00
2018-09-24T13:20:49.122Z,42.00
2018-09-24T13:21:53.548Z,42.00
2018-09-24T13:22:57.988Z,42.00
2018-09-24T13:24:02.249Z,42.10
2018-09-24T13:25:06.635Z,42.20
2018-09-24T13:26:11.065Z,42.70
2018-09-24T13:27:15.408Z,42.00
2018-09-24T13:28:19.805Z,42.10
2018-09-24T13:29:24.119Z,42.20
2018-09-24T13:30:28.523Z,42.20
2018-09-24T13:31:32.884Z,42.20
2018-09-24T13:32:37.216Z,42.00
2018-09-24T13:33:41.577Z,42.20
2018-09-24T13:34:46.039Z,42.10
2018-09-24T13:35:50.377Z,42.20
2018-09-24T13:36:54.665Z,42.20
2018-09-24T13:37:59.039Z,42.20
2018-09-24T13:39:03.300Z,42.20
2018-09-24T13:40:07.762Z,42.00
2018-09-24T13:41:12.063Z,41.80
2018-09-24T13:42:16.429Z,41.80
2018-09-24T13:43:20.803Z,41.80
2018-09-24T13:44:25.070Z,42.00
2018-09-24T13:45:29.338Z,42.00
2018-09-24T13:46:33.709Z,42.80
2018-09-24T13:47:38.072Z,42.10
2018-09-24T13:48:42.403Z,42.00
2018-09-24T13:49:46.618Z,42.10
2018-09-24T13:50:50.848Z,41.90
2018-09-24T13:51:55.092Z,41.90